createdAt,value
2019-02-10T00:02:00.746Z,0.49
2019-02-10T00:04:30.531Z,0.53
2019-02-10T00:07:00.336Z,0.56
2019-02-10T00:09:30.983Z,0.57
2019-02-10T00:12:00.779Z,0.52
2019-02-10T00:14:30.562Z,0.43
2019-02-10T00:17:00.417Z,0.41
2019-02-10T00:19:30.181Z,0.41
2019-02-10T00:22:00.120Z,0.54
2019-02-10T00:24:30.616Z,0.65
2019-02-10T00:27:00.354Z,0.58
2019-02-10T00:29:30.202Z,0.52
2019-02-10T00:31:59.963Z,0.52
2019-02-10T00:34:29.783Z,0.50
2019-02-10T00:36:59.630Z,0.50
2019-02-10T00:39:29.393Z,0.53
2019-02-10T00:41:59.305Z,0.53
2019-02-10T00:44:29.083Z,0.50
2019-02-10T00:46:59.086Z,0.54
2019-02-10T00:49:28.836Z,0.63
2019-02-10T00:52:00.656Z,0.68
2019-02-10T00:54:30.504Z,0.63
2019-02-10T00:57:00.362Z,0.61
2019-02-10T00:59:30.179Z,0.62
2019-02-10T01:02:00.361Z,0.71
2019-02-10T01:04:30.186Z,0.69
2019-02-10T01:07:00.002Z,0.52
2019-02-10T01:09:29.758Z,0.52
2019-02-10T01:11:59.529Z,0.52
2019-02-10T01:14:29.310Z,0.57
2019-02-10T01:16:59.148Z,0.56
2019-02-10T01:19:28.871Z,0.56
2019-02-10T01:21:58.696Z,0.56
2019-02-10T01:24:28.464Z,0.53
2019-02-10T01:27:00.032Z,0.52
2019-02-10T01:29:29.839Z,0.47
2019-02-10T01:31:59.597Z,0.49
2019-02-10T01:34:29.582Z,0.49
2019-02-10T01:36:59.851Z,0.48
2019-02-10T01:39:29.611Z,0.50
2019-02-10T01:41:59.353Z,0.50
2019-02-10T01:44:29.112Z,0.50
2019-02-10T01:46:59.161Z,0.37
2019-02-10T01:49:28.903Z,0.29
2019-02-10T01:51:58.702Z,0.31
2019-02-10T01:54:28.493Z,0.35
2019-02-10T01:56:58.347Z,0.35
2019-02-10T01:59:28.119Z,0.40
2019-02-10T02:01:57.917Z,0.42
2019-02-10T02:04:27.722Z,0.35
2019-02-10T02:06:58.175Z,0.42
2019-02-10T02:09:28.069Z,0.43
2019-02-10T02:11:57.945Z,0.47
2019-02-10T02:14:27.753Z,0.48
2019-02-10T02:16:57.553Z,0.34
2019-02-10T02:19:28.284Z,0.30
2019-02-10T02:21:57.992Z,0.24
2019-02-10T02:24:27.925Z,0.24
2019-02-10T02:26:57.676Z,0.30
2019-02-10T02:29:27.810Z,0.32
2019-02-10T02:31:57.876Z,0.32
2019-02-10T02:34:27.762Z,0.31
2019-02-10T02:36:57.443Z,0.30
2019-02-10T02:39:27.199Z,0.30
2019-02-10T02:41:56.999Z,0.28
2019-02-10T02:44:27.571Z,0.31
2019-02-10T02:46:57.446Z,0.31
2019-02-10T02:49:27.171Z,0.25
2019-02-10T02:51:56.932Z,0.29
2019-02-10T02:54:26.717Z,0.22
2019-02-10T02:56:56.435Z,0.26
2019-02-10T02:59:26.231Z,0.22
2019-02-10T03:01:56.373Z,0.22
2019-02-10T03:04:26.178Z,0.18
2019-02-10T03:06:55.991Z,0.16
2019-02-10T03:09:25.798Z,0.17
2019-02-10T03:11:55.659Z,0.17
2019-02-10T03:14:25.630Z,0.06
2019-02-10T03:16:55.534Z,0.12
2019-02-10T03:19:25.399Z,0.16
2019-02-10T03:21:55.230Z,0.15
2019-02-10T03:24:25.018Z,0.15
2019-02-10T03:26:54.801Z,0.18
2019-02-10T03:29:24.801Z,-0.37
2019-02-10T03:31:54.797Z,0.29
2019-02-10T03:34:24.588Z,0.23
2019-02-10T03:36:54.318Z,0.23
2019-02-10T03:39:24.228Z,0.23
2019-02-10T03:41:54.020Z,0.29
2019-02-10T03:44:23.798Z,0.28
2019-02-10T03:46:53.538Z,0.31
2019-02-10T03:49:23.313Z,0.32
2019-02-10T03:51:53.063Z,0.31
2019-02-10T03:54:23.014Z,0.25
2019-02-10T03:56:52.821Z,0.26
2019-02-10T03:59:22.591Z,0.18
2019-02-10T04:01:52.388Z,0.18
2019-02-10T04:04:22.166Z,0.28
2019-02-10T04:06:52.470Z,0.28
2019-02-10T04:09:22.255Z,0.31
2019-02-10T04:11:52.064Z,0.36
2019-02-10T04:14:21.827Z,0.36
2019-02-10T04:16:51.892Z,0.35
2019-02-10T04:19:21.732Z,0.38
2019-02-10T04:21:51.492Z,0.38
2019-02-10T04:24:21.345Z,0.38
2019-02-10T04:26:51.104Z,0.36
2019-02-10T04:29:21.258Z,0.33
2019-02-10T04:31:51.043Z,0.33
2019-02-10T04:34:20.806Z,0.26
2019-02-10T04:36:50.615Z,0.25
2019-02-10T04:39:21.355Z,0.21
2019-02-10T04:41:51.123Z,0.21
2019-02-10T04:44:20.945Z,0.15
2019-02-10T04:46:51.220Z,0.17
2019-02-10T04:49:20.974Z,0.17
2019-02-10T04:51:50.693Z,-0.10
2019-02-10T04:54:20.473Z,-0.08
2019-02-10T04:56:50.443Z,-0.07
2019-02-10T04:59:20.176Z,0.19
2019-02-10T05:01:50.538Z,0.19
2019-02-10T05:04:20.362Z,0.25
2019-02-10T05:06:50.116Z,0.13
2019-02-10T05:09:19.855Z,0.02
2019-02-10T05:11:49.614Z,-0.10
2019-02-10T05:14:19.390Z,-0.10
2019-02-10T05:16:49.433Z,0.09
2019-02-10T05:19:19.199Z,0.12
2019-02-10T05:21:49.043Z,0.08
2019-02-10T05:24:18.841Z,0.08
2019-02-10T05:26:48.794Z,-0.01
2019-02-10T05:29:18.569Z,-0.04
2019-02-10T05:31:48.290Z,-0.10
2019-02-10T05:34:18.192Z,-0.15
2019-02-10T05:36:47.960Z,-0.12
2019-02-10T05:39:18.478Z,-0.09
2019-02-10T05:41:48.241Z,-0.09
2019-02-10T05:44:17.997Z,-0.08
2019-02-10T05:46:47.788Z,-0.10
2019-02-10T05:49:17.647Z,-0.09
2019-02-10T05:51:47.363Z,-0.09
2019-02-10T05:54:17.155Z,-0.12
2019-02-10T05:56:47.643Z,-0.09
2019-02-10T05:59:17.450Z,-0.07
2019-02-10T06:02:08.426Z,-0.04
2019-02-10T06:04:41.113Z,-0.09
2019-02-10T06:07:16.582Z,-0.19
2019-02-10T06:09:46.601Z,-0.08
2019-02-10T06:12:16.414Z,-0.08
2019-02-10T06:14:46.194Z,-0.08
2019-02-10T06:17:16.113Z,-0.04
2019-02-10T06:19:45.934Z,2.64
2019-02-10T06:22:16.601Z,3.61
2019-02-10T06:24:46.375Z,4.00
2019-02-10T06:27:16.129Z,4.09
2019-02-10T06:29:45.938Z,4.23
2019-02-10T06:32:15.998Z,4.33
2019-02-10T06:34:45.832Z,4.29
2019-02-10T06:37:16.319Z,3.72
2019-02-10T06:39:46.085Z,2.84
2019-02-10T06:42:15.874Z,1.35
2019-02-10T06:44:45.578Z,1.87
2019-02-10T06:47:15.397Z,1.65
2019-02-10T06:49:46.654Z,1.41
2019-02-10T06:52:17.223Z,1.18
2019-02-10T06:54:55.962Z,1.08
2019-02-10T06:57:25.827Z,1.08
2019-02-10T06:59:57.140Z,1.06
2019-02-10T07:02:31.681Z,1.09
2019-02-10T07:05:01.677Z,0.98
2019-02-10T07:07:31.463Z,0.97
2019-02-10T07:10:01.387Z,0.88
2019-02-10T07:12:50.590Z,0.89
2019-02-10T07:15:56.640Z,0.97
2019-02-10T07:19:02.651Z,0.96
2019-02-10T07:21:34.222Z,0.97
2019-02-10T07:24:23.740Z,1.16
2019-02-10T07:26:54.742Z,1.28
2019-02-10T07:29:30.603Z,1.45
2019-02-10T07:32:00.666Z,1.54
2019-02-10T07:34:51.785Z,1.66
2019-02-10T07:37:42.689Z,1.76
2019-02-10T07:40:31.825Z,1.77
2019-02-10T07:43:27.418Z,1.74
2019-02-10T07:46:16.271Z,1.94
2019-02-10T07:48:58.338Z,2.02
2019-02-10T07:51:33.678Z,2.20
2019-02-10T07:54:17.045Z,2.43
2019-02-10T07:57:09.633Z,2.55
2019-02-10T07:59:45.640Z,2.67
2019-02-10T08:02:18.512Z,2.74
2019-02-10T08:04:51.294Z,2.81
2019-02-10T08:07:44.594Z,2.88
2019-02-10T08:10:35.636Z,2.92
2019-02-10T08:13:28.378Z,2.91
2019-02-10T08:16:01.137Z,3.04
2019-02-10T08:18:59.147Z,2.98
2019-02-10T08:21:38.693Z,3.13
2019-02-10T08:24:23.385Z,3.23
2019-02-10T08:26:56.559Z,3.21
2019-02-10T08:29:38.167Z,3.38
2019-02-10T08:32:16.898Z,3.60
2019-02-10T08:34:58.532Z,3.72
2019-02-10T08:37:37.258Z,3.87
2019-02-10T08:40:22.283Z,3.91
2019-02-10T08:42:57.911Z,3.75
2019-02-10T08:45:33.444Z,3.62
2019-02-10T08:48:28.177Z,3.47
2019-02-10T08:51:19.130Z,3.62
2019-02-10T08:53:48.938Z,3.61
2019-02-10T08:56:18.734Z,3.79
2019-02-10T08:58:48.489Z,3.91
2019-02-10T09:01:18.257Z,3.50
2019-02-10T09:03:47.929Z,3.34
2019-02-10T09:06:17.834Z,3.59
2019-02-10T09:08:47.666Z,3.70
2019-02-10T09:11:17.495Z,4.00
2019-02-10T09:13:47.437Z,4.24
2019-02-10T09:16:18.126Z,4.40
2019-02-10T09:18:47.943Z,4.48
2019-02-10T09:21:17.971Z,4.51
2019-02-10T09:23:47.730Z,4.54
2019-02-10T09:26:18.380Z,4.68
2019-02-10T09:28:48.174Z,4.70
2019-02-10T09:31:17.977Z,4.76
2019-02-10T09:33:48.933Z,4.76
2019-02-10T09:36:18.762Z,4.73
2019-02-10T09:38:48.579Z,4.86
2019-02-10T09:41:18.413Z,4.87
2019-02-10T09:43:48.187Z,5.01
2019-02-10T09:46:21.707Z,5.14
2019-02-10T09:48:51.503Z,5.33
2019-02-10T09:51:21.314Z,5.52
2019-02-10T09:53:51.115Z,5.74
2019-02-10T09:56:20.906Z,5.98
2019-02-10T09:58:50.765Z,6.12
2019-02-10T10:01:20.556Z,6.18
2019-02-10T10:03:50.345Z,6.31
2019-02-10T10:06:20.169Z,6.45
2019-02-10T10:08:50.009Z,6.31
2019-02-10T10:11:19.799Z,6.31
2019-02-10T10:13:49.733Z,6.21
2019-02-10T10:16:19.556Z,6.07
2019-02-10T10:18:49.354Z,5.86
2019-02-10T10:21:19.211Z,5.56
2019-02-10T10:23:49.054Z,5.49
2019-02-10T10:26:18.839Z,5.50
2019-02-10T10:28:48.654Z,5.43
2019-02-10T10:31:18.451Z,5.46
2019-02-10T10:33:48.256Z,5.51
2019-02-10T10:36:18.056Z,5.61
2019-02-10T10:38:47.863Z,5.64
2019-02-10T10:41:17.704Z,5.58
2019-02-10T10:43:47.778Z,5.69
2019-02-10T10:46:17.593Z,5.77
2019-02-10T10:48:47.427Z,5.59
2019-02-10T10:51:17.286Z,5.73
2019-02-10T10:53:47.138Z,5.69
2019-02-10T10:56:16.941Z,5.67
2019-02-10T10:58:46.877Z,5.64
2019-02-10T11:01:16.688Z,5.64
2019-02-10T11:03:46.548Z,5.71
2019-02-10T11:06:16.369Z,5.83
2019-02-10T11:08:46.183Z,5.99
2019-02-10T11:11:16.011Z,6.02
2019-02-10T11:13:45.848Z,6.14
2019-02-10T11:16:15.636Z,6.24
2019-02-10T11:18:45.457Z,6.37
2019-02-10T11:21:15.335Z,6.46
2019-02-10T11:23:45.150Z,6.57
2019-02-10T11:26:14.915Z,6.60
2019-02-10T11:28:44.735Z,6.61
2019-02-10T11:31:14.571Z,6.67
2019-02-10T11:33:44.364Z,6.78
2019-02-10T11:36:14.214Z,6.81
2019-02-10T11:38:44.045Z,6.93
2019-02-10T11:41:13.993Z,7.03
2019-02-10T11:43:43.891Z,7.19
2019-02-10T11:46:13.715Z,7.12
2019-02-10T11:48:43.580Z,7.00
2019-02-10T11:51:13.409Z,6.83
2019-02-10T11:53:43.237Z,6.71
2019-02-10T11:56:13.214Z,6.66
2019-02-10T11:58:43.061Z,6.63
2019-02-10T12:01:12.894Z,6.71
2019-02-10T12:03:42.777Z,6.89
2019-02-10T12:06:12.598Z,7.00
2019-02-10T12:08:42.437Z,6.97
2019-02-10T12:11:12.275Z,6.94
2019-02-10T12:13:42.176Z,7.10
2019-02-10T12:16:12.056Z,7.32
2019-02-10T12:18:42.076Z,7.31
2019-02-10T12:21:11.904Z,7.35
2019-02-10T12:23:41.721Z,7.38
2019-02-10T12:26:11.621Z,7.47
2019-02-10T12:28:41.461Z,7.62
2019-02-10T12:31:11.302Z,7.75
2019-02-10T12:33:41.194Z,7.79
2019-02-10T12:36:11.039Z,7.84
2019-02-10T12:38:40.884Z,7.93
2019-02-10T12:41:10.737Z,7.88
2019-02-10T12:43:40.601Z,7.77
2019-02-10T12:46:10.441Z,7.78
2019-02-10T12:48:40.299Z,7.86
2019-02-10T12:51:10.146Z,7.81
2019-02-10T12:53:40.081Z,7.73
2019-02-10T12:56:09.883Z,7.66
2019-02-10T12:58:39.712Z,7.66
2019-02-10T13:01:09.563Z,7.67
2019-02-10T13:03:39.421Z,7.72
2019-02-10T13:06:09.286Z,7.71
2019-02-10T13:08:40.003Z,7.74
2019-02-10T13:11:09.820Z,7.77
2019-02-10T13:13:39.694Z,7.75
2019-02-10T13:16:10.455Z,7.76
2019-02-10T13:18:40.282Z,7.79
2019-02-10T13:21:10.099Z,7.80
2019-02-10T13:23:40.019Z,7.75
2019-02-10T13:26:09.817Z,7.79
2019-02-10T13:28:39.724Z,7.57
2019-02-10T13:31:09.517Z,7.48
2019-02-10T13:33:39.365Z,7.41
2019-02-10T13:36:09.265Z,7.32
2019-02-10T13:38:39.144Z,7.28
2019-02-10T13:41:08.996Z,7.27
2019-02-10T13:43:38.801Z,7.25
2019-02-10T13:46:08.723Z,7.14
2019-02-10T13:48:38.554Z,7.12
2019-02-10T13:51:08.558Z,7.15
2019-02-10T13:53:38.399Z,7.14
2019-02-10T13:56:08.225Z,7.09
2019-02-10T13:58:38.097Z,7.03
2019-02-10T14:01:08.049Z,7.10
2019-02-10T14:03:39.120Z,6.94
2019-02-10T14:06:08.971Z,6.86
2019-02-10T14:08:39.154Z,6.83
2019-02-10T14:11:09.714Z,6.83
2019-02-10T14:13:39.641Z,6.84
2019-02-10T14:16:09.885Z,6.85
2019-02-10T14:18:39.900Z,6.83
2019-02-10T14:21:09.818Z,7.02
2019-02-10T14:23:39.483Z,7.91
2019-02-10T14:26:10.055Z,8.20
2019-02-10T14:28:41.011Z,7.92
2019-02-10T14:31:12.470Z,7.90
2019-02-10T14:33:43.171Z,7.78
2019-02-10T14:36:13.839Z,8.07
2019-02-10T14:38:45.057Z,8.16
2019-02-10T14:41:19.784Z,8.19
2019-02-10T14:43:49.555Z,8.25
2019-02-10T14:46:19.236Z,8.21
2019-02-10T14:48:49.815Z,8.29
2019-02-10T14:51:20.582Z,8.30
2019-02-10T14:53:50.392Z,8.05
2019-02-10T14:56:21.023Z,7.98
2019-02-10T14:58:50.653Z,8.16
2019-02-10T15:01:21.321Z,8.06
2019-02-10T15:03:51.168Z,8.11
2019-02-10T15:06:20.997Z,8.08
2019-02-10T15:08:50.836Z,8.03
2019-02-10T15:11:20.641Z,8.11
2019-02-10T15:13:50.509Z,8.09
2019-02-10T15:16:22.058Z,7.97
2019-02-10T15:18:51.856Z,7.85
2019-02-10T15:21:21.746Z,7.73
2019-02-10T15:23:51.622Z,7.68
2019-02-10T15:26:21.363Z,7.63
2019-02-10T15:28:51.171Z,7.52
2019-02-10T15:31:21.012Z,7.44
2019-02-10T15:33:50.917Z,7.36
2019-02-10T15:36:20.755Z,7.29
2019-02-10T15:38:50.630Z,7.30
2019-02-10T15:41:20.565Z,7.23
2019-02-10T15:43:50.367Z,7.13
2019-02-10T15:46:20.281Z,7.05
2019-02-10T15:48:50.085Z,7.01
2019-02-10T15:51:28.568Z,7.01
2019-02-10T15:53:51.356Z,7.02
2019-02-10T15:56:21.149Z,6.99
2019-02-10T15:58:50.989Z,6.93
2019-02-10T16:01:21.793Z,6.89
2019-02-10T16:03:51.613Z,6.85
2019-02-10T16:06:21.603Z,6.82
2019-02-10T16:08:52.710Z,6.81
2019-02-10T16:11:22.716Z,6.82
2019-02-10T16:13:52.534Z,6.76
2019-02-10T16:16:22.438Z,6.71
2019-02-10T16:18:52.201Z,6.69
2019-02-10T16:21:21.984Z,6.69
2019-02-10T16:23:51.997Z,6.67
2019-02-10T16:26:21.801Z,6.59
2019-02-10T16:28:51.619Z,6.53
2019-02-10T16:31:21.412Z,6.51
2019-02-10T16:33:51.219Z,6.47
2019-02-10T16:36:21.020Z,6.48
2019-02-10T16:38:50.843Z,6.54
2019-02-10T16:41:22.101Z,6.59
2019-02-10T16:43:51.937Z,6.62
2019-02-10T16:46:22.782Z,6.66
2019-02-10T16:48:52.615Z,6.77
2019-02-10T16:51:22.495Z,6.78
2019-02-10T16:53:52.266Z,6.77
2019-02-10T16:56:22.425Z,6.81
2019-02-10T16:58:52.324Z,6.89
2019-02-10T17:01:22.083Z,6.87
2019-02-10T17:03:51.855Z,6.85
2019-02-10T17:06:21.811Z,6.82
2019-02-10T17:08:51.719Z,6.76
2019-02-10T17:11:22.813Z,6.70
2019-02-10T17:13:52.710Z,6.67
2019-02-10T17:16:22.454Z,6.63
2019-02-10T17:18:52.313Z,6.61
2019-02-10T17:21:23.719Z,6.84
2019-02-10T17:23:53.543Z,6.97
2019-02-10T17:26:23.460Z,7.01
2019-02-10T17:28:53.247Z,6.95
2019-02-10T17:31:23.112Z,6.87
2019-02-10T17:33:52.911Z,6.85
2019-02-10T17:36:22.823Z,6.87
2019-02-10T17:38:52.637Z,6.90
2019-02-10T17:41:25.136Z,6.95
2019-02-10T17:43:54.949Z,7.21
2019-02-10T17:46:24.742Z,6.69
2019-02-10T17:48:55.343Z,7.15
2019-02-10T17:51:25.150Z,7.12
2019-02-10T17:53:54.830Z,7.02
2019-02-10T17:56:24.879Z,6.90
2019-02-10T17:58:54.769Z,6.79
2019-02-10T18:01:24.573Z,6.65
2019-02-10T18:03:54.415Z,6.58
2019-02-10T18:06:25.374Z,6.53
2019-02-10T18:08:55.259Z,6.49
2019-02-10T18:11:30.937Z,6.47
2019-02-10T18:13:56.522Z,6.42
2019-02-10T18:16:27.873Z,6.51
2019-02-10T18:18:59.242Z,6.37
2019-02-10T18:21:46.136Z,6.29
2019-02-10T18:24:37.825Z,6.26
2019-02-10T18:27:36.066Z,6.22
2019-02-10T18:30:19.150Z,6.21
2019-02-10T18:32:59.277Z,6.24
2019-02-10T18:35:34.261Z,6.24
2019-02-10T18:38:24.108Z,6.25
2019-02-10T18:41:04.616Z,6.29
2019-02-10T18:43:39.715Z,6.21
2019-02-10T18:46:14.910Z,6.38
2019-02-10T18:48:49.170Z,6.52
2019-02-10T18:51:20.602Z,6.62
2019-02-10T18:53:54.699Z,6.63
2019-02-10T18:56:26.103Z,6.67
2019-02-10T18:59:00.501Z,6.74
2019-02-10T19:01:31.935Z,6.79
2019-02-10T19:04:19.287Z,6.75
2019-02-10T19:06:59.537Z,6.72
2019-02-10T19:09:47.049Z,6.71
2019-02-10T19:12:19.420Z,6.71
2019-02-10T19:14:50.856Z,6.70
2019-02-10T19:17:23.822Z,6.68
2019-02-10T19:20:07.104Z,6.75
2019-02-10T19:22:39.060Z,6.74
2019-02-10T19:25:10.709Z,6.76
2019-02-10T19:27:52.284Z,6.71
2019-02-10T19:30:40.256Z,6.68
2019-02-10T19:33:12.879Z,6.70
2019-02-10T19:35:44.336Z,6.79
2019-02-10T19:38:16.878Z,6.88
2019-02-10T19:40:54.716Z,6.95
2019-02-10T19:43:27.067Z,7.03
2019-02-10T19:45:58.339Z,7.02
2019-02-10T19:48:43.966Z,7.07
2019-02-10T19:51:21.428Z,7.02
2019-02-10T19:53:55.649Z,6.92
2019-02-10T19:56:28.312Z,6.89
2019-02-10T19:59:06.793Z,6.91
2019-02-10T20:01:40.974Z,7.05
2019-02-10T20:04:13.537Z,6.87
2019-02-10T20:06:45.004Z,6.92
2019-02-10T20:09:19.252Z,7.21
2019-02-10T20:12:03.969Z,7.06
2019-02-10T20:14:32.668Z,7.00
2019-02-10T20:17:06.753Z,6.94
2019-02-10T20:19:38.080Z,6.98
2019-02-10T20:22:15.751Z,6.98
2019-02-10T20:24:53.380Z,7.00
2019-02-10T20:27:36.953Z,7.01
2019-02-10T20:30:20.420Z,6.98
2019-02-10T20:32:51.734Z,6.88
2019-02-10T20:35:35.254Z,6.75
2019-02-10T20:38:09.551Z,6.66
2019-02-10T20:40:47.270Z,6.68
2019-02-10T20:43:18.637Z,6.79
2019-02-10T20:45:56.057Z,6.85
2019-02-10T20:48:36.387Z,6.98
2019-02-10T20:51:16.656Z,7.02
2019-02-10T20:54:03.065Z,7.04
2019-02-10T20:56:40.377Z,7.02
2019-02-10T20:59:23.915Z,7.00
2019-02-10T21:02:05.464Z,6.97
2019-02-10T21:04:39.899Z,6.95
2019-02-10T21:07:11.250Z,6.96
2019-02-10T21:09:45.376Z,7.04
2019-02-10T21:12:20.847Z,7.11
2019-02-10T21:14:58.277Z,7.00
2019-02-10T21:17:38.405Z,6.89
2019-02-10T21:20:16.127Z,6.81
2019-02-10T21:22:59.798Z,6.91
2019-02-10T21:25:31.149Z,7.04
2019-02-10T21:28:18.792Z,6.96
2019-02-10T21:31:08.296Z,6.89
2019-02-10T21:33:39.612Z,6.80
2019-02-10T21:36:16.777Z,6.75
2019-02-10T21:38:51.113Z,6.73
2019-02-10T21:41:22.425Z,6.82
2019-02-10T21:43:56.583Z,6.85
2019-02-10T21:46:45.925Z,6.85
2019-02-10T21:49:15.672Z,6.86
2019-02-10T21:51:45.502Z,6.88
2019-02-10T21:54:15.311Z,6.90
2019-02-10T21:56:45.106Z,6.94
2019-02-10T21:59:14.986Z,6.98
2019-02-10T22:01:44.801Z,7.01
2019-02-10T22:04:15.794Z,7.06
2019-02-10T22:06:45.612Z,7.00
2019-02-10T22:09:15.420Z,7.02
2019-02-10T22:11:45.243Z,7.25
2019-02-10T22:14:15.096Z,7.46
2019-02-10T22:16:44.873Z,7.44
2019-02-10T22:19:14.686Z,7.33
2019-02-10T22:21:44.470Z,7.14
2019-02-10T22:24:14.982Z,7.00
2019-02-10T22:26:44.790Z,6.89
2019-02-10T22:29:14.545Z,6.88
2019-02-10T22:31:44.361Z,6.92
2019-02-10T22:34:14.168Z,7.00
2019-02-10T22:36:44.174Z,7.14
2019-02-10T22:39:14.467Z,7.31
2019-02-10T22:41:45.901Z,7.39
2019-02-10T22:44:15.704Z,7.39
2019-02-10T22:46:45.381Z,7.36
2019-02-10T22:49:15.140Z,7.25
2019-02-10T22:51:44.909Z,7.21
2019-02-10T22:54:14.667Z,7.25
2019-02-10T22:56:44.327Z,7.19
2019-02-10T22:59:14.113Z,7.13
2019-02-10T23:01:43.954Z,7.23
2019-02-10T23:04:13.702Z,7.24
2019-02-10T23:06:45.066Z,7.21
2019-02-10T23:09:16.506Z,7.24
2019-02-10T23:11:46.684Z,7.25
2019-02-10T23:14:16.484Z,7.25
2019-02-10T23:16:46.232Z,7.14
2019-02-10T23:19:16.446Z,7.24
2019-02-10T23:21:46.610Z,7.14
2019-02-10T23:24:16.723Z,7.06
2019-02-10T23:26:46.512Z,7.05
2019-02-10T23:29:16.319Z,6.91
2019-02-10T23:31:47.204Z,6.83
2019-02-10T23:34:16.906Z,6.76
2019-02-10T23:36:49.049Z,6.59
2019-02-10T23:39:19.659Z,6.33
2019-02-10T23:41:49.442Z,6.14
2019-02-10T23:44:19.210Z,6.18
2019-02-10T23:46:49.661Z,6.02
2019-02-10T23:49:19.381Z,5.93
2019-02-10T23:51:49.292Z,5.93
2019-02-10T23:54:18.892Z,5.88
2019-02-10T23:56:49.680Z,5.80
2019-02-10T23:59:19.435Z,5.69
